Time;durP1;ratioP1;P1;durP2;ratioP2;P2;SDS_P1;SDS_P2;PMS_P1;PMS_P2;Temp;Humidity;BMP_temperature;BMP_pressure;BME280_temperature;BME280_humidity;BME280_pressure;Samples;Min_cycle;Max_cycle;Signal;HPM_P1;HPM_P2
2022/04/24 00:01:25;;;;;;;9.15;8.13;;;9.80;99.90;;;;;;4386474;28;10000179;-73
2022/04/24 00:03:51;;;;;;;9.35;8.35;;;9.80;99.90;;;;;;5087846;28;20027;-73
2022/04/24 00:06:17;;;;;;;8.98;7.93;;;9.80;99.90;;;;;;5089488;28;20024;-73
2022/04/24 00:08:42;;;;;;;11.05;8.10;;;9.70;99.90;;;;;;5091252;28;20433;-73
2022/04/24 00:11:08;;;;;;;10.02;8.40;;;9.70;99.90;;;;;;5091189;28;20565;-73
2022/04/24 00:13:38;;;;;;;9.82;8.75;;;9.70;99.90;;;;;;5093619;28;20024;-73
2022/04/24 00:16:06;;;;;;;10.98;8.70;;;9.70;99.90;;;;;;5088736;28;20416;-73
2022/04/24 00:18:32;;;;;;;12.35;9.48;;;9.70;99.90;;;;;;5086986;28;20020;-73
2022/04/24 00:20:57;;;;;;;12.52;9.10;;;9.70;99.90;;;;;;5087799;28;20020;-73
2022/04/24 00:23:23;;;;;;;11.68;9.13;;;9.60;99.90;;;;;;5089041;28;20024;-73
2022/04/24 00:25:49;;;;;;;10.52;9.20;;;9.60;99.90;;;;;;5084329;28;20585;-73
2022/04/24 00:28:14;;;;;;;12.00;9.30;;;9.60;99.90;;;;;;5092767;28;20040;-73
2022/04/24 00:30:40;;;;;;;9.80;8.80;;;9.60;99.90;;;;;;5089979;28;20047;-73
2022/04/24 00:33:06;;;;;;;12.82;8.90;;;9.60;99.90;;;;;;5100443;28;20075;-73
2022/04/24 00:35:31;;;;;;;11.05;9.70;;;9.60;99.90;;;;;;5086260;28;20031;-73
2022/04/24 00:37:57;;;;;;;10.60;9.00;;;9.50;99.90;;;;;;5089308;28;20031;-73
2022/04/24 00:40:23;;;;;;;11.63;9.15;;;9.60;99.90;;;;;;5093068;28;20020;-73
2022/04/24 00:42:49;;;;;;;10.13;8.70;;;9.50;99.90;;;;;;5092227;28;20110;-73
2022/04/24 00:45:15;;;;;;;9.88;8.63;;;9.50;99.90;;;;;;5092852;28;20035;-73
2022/04/24 00:47:44;;;;;;;11.75;9.55;;;9.50;99.90;;;;;;5091190;28;20038;-73
2022/04/24 00:50:10;;;;;;;10.88;8.95;;;9.50;99.90;;;;;;5089749;28;20086;-74
2022/04/24 00:52:36;;;;;;;11.00;8.88;;;9.50;99.90;;;;;;5097420;28;20028;-73
2022/04/24 00:55:02;;;;;;;10.10;8.98;;;9.40;99.90;;;;;;5087835;28;20024;-73
2022/04/24 00:57:28;;;;;;;11.02;9.30;;;9.40;99.90;;;;;;5090173;28;20439;-73
2022/04/24 00:59:53;;;;;;;10.27;9.05;;;9.40;99.90;;;;;;5095808;28;20028;-73
2022/04/24 01:02:20;;;;;;;10.23;8.90;;;9.40;99.90;;;;;;5093688;28;20008;-73
2022/04/24 01:04:45;;;;;;;10.38;8.75;;;9.40;99.90;;;;;;5083879;28;20028;-73
2022/04/24 01:07:11;;;;;;;10.88;9.35;;;9.40;99.90;;;;;;5088202;28;20047;-73
2022/04/24 01:09:37;;;;;;;11.65;9.75;;;9.40;99.90;;;;;;5086054;28;20067;-73
2022/04/24 01:12:04;;;;;;;11.05;9.68;;;9.40;99.90;;;;;;5093398;28;20024;-72
2022/04/24 01:14:31;;;;;;;10.80;9.43;;;9.40;99.90;;;;;;5085885;28;20035;-72
2022/04/24 01:16:57;;;;;;;12.00;9.40;;;9.40;99.90;;;;;;5084315;28;20457;-72
2022/04/24 01:19:26;;;;;;;11.55;9.25;;;9.40;99.90;;;;;;5094104;28;20522;-72
2022/04/24 01:21:53;;;;;;;12.77;9.93;;;9.40;99.90;;;;;;5089035;28;20270;-73
2022/04/24 01:24:20;;;;;;;11.40;9.10;;;9.40;99.90;;;;;;5085471;28;20044;-73
2022/04/24 01:26:46;;;;;;;13.05;9.93;;;9.40;99.90;;;;;;5084519;28;20024;-72
2022/04/24 01:29:12;;;;;;;12.80;10.23;;;9.40;99.90;;;;;;5089393;28;20032;-73
2022/04/24 01:31:39;;;;;;;12.52;10.20;;;9.40;99.90;;;;;;5089843;28;20727;-73
2022/04/24 01:34:04;;;;;;;12.75;9.57;;;9.40;99.90;;;;;;5086543;28;20027;-72
2022/04/24 01:36:30;;;;;;;10.60;9.50;;;9.40;99.90;;;;;;5091943;28;20412;-73
2022/04/24 01:38:56;;;;;;;13.32;10.40;;;9.40;99.90;;;;;;5096869;28;20034;-72
2022/04/24 01:41:21;;;;;;;12.70;10.32;;;9.40;99.90;;;;;;5092708;28;20065;-73
2022/04/24 01:43:48;;;;;;;12.60;10.60;;;9.40;99.90;;;;;;5087212;28;20020;-73
2022/04/24 01:46:14;;;;;;;16.10;11.02;;;9.40;99.90;;;;;;5090547;28;20024;-73
2022/04/24 01:48:40;;;;;;;13.23;10.85;;;9.40;99.90;;;;;;5089321;28;20440;-73
2022/04/24 01:51:07;;;;;;;15.52;11.13;;;9.40;99.90;;;;;;5085584;28;20055;-73
2022/04/24 01:53:34;;;;;;;14.80;11.27;;;9.40;99.90;;;;;;5088313;28;20620;-73
2022/04/24 01:56:03;;;;;;;14.50;11.50;;;9.40;99.90;;;;;;5085266;28;20032;-73
2022/04/24 01:58:29;;;;;;;14.63;11.20;;;9.30;99.90;;;;;;5087852;28;20020;-73
2022/04/24 02:00:55;;;;;;;13.13;10.73;;;9.30;99.90;;;;;;5084237;28;20729;-74
2022/04/24 02:03:22;;;;;;;14.48;11.13;;;9.30;99.90;;;;;;5086312;28;20046;-73
2022/04/24 02:05:47;;;;;;;14.90;11.30;;;9.30;99.90;;;;;;5086748;28;20039;-73
2022/04/24 02:08:13;;;;;;;13.13;10.90;;;9.30;99.90;;;;;;5088968;28;20202;-73
2022/04/24 02:10:39;;;;;;;14.60;11.32;;;9.30;99.90;;;;;;5091496;28;20047;-73
2022/04/24 02:13:05;;;;;;;13.68;11.15;;;9.30;99.90;;;;;;5086703;28;20036;-73
2022/04/24 02:15:31;;;;;;;12.48;10.93;;;9.30;99.90;;;;;;5082744;28;20023;-73
2022/04/24 02:17:57;;;;;;;14.25;11.23;;;9.30;99.90;;;;;;5085413;28;20028;-73
2022/04/24 02:20:23;;;;;;;13.77;10.75;;;9.20;99.90;;;;;;5089335;28;20077;-73
2022/04/24 02:22:49;;;;;;;15.23;11.05;;;9.20;99.90;;;;;;5088769;28;20304;-73
2022/04/24 02:25:15;;;;;;;15.25;11.50;;;9.20;99.90;;;;;;5085570;28;20115;-72
2022/04/24 02:27:42;;;;;;;14.02;11.35;;;9.20;99.90;;;;;;5090600;28;20127;-72
2022/04/24 02:30:08;;;;;;;13.68;11.27;;;9.20;99.90;;;;;;5091121;28;20127;-72
2022/04/24 02:32:33;;;;;;;14.35;11.38;;;9.20;99.90;;;;;;5084662;28;20044;-73
2022/04/24 02:34:59;;;;;;;13.52;11.70;;;9.10;99.90;;;;;;5086675;28;20024;-73
2022/04/24 02:37:26;;;;;;;13.85;11.77;;;9.10;99.90;;;;;;5089669;28;20468;-72
2022/04/24 02:39:52;;;;;;;13.55;11.88;;;9.10;99.90;;;;;;5086885;28;20028;-72
2022/04/24 02:42:18;;;;;;;13.45;11.85;;;9.00;99.90;;;;;;5084858;28;20208;-72
2022/04/24 02:44:43;;;;;;;15.25;11.90;;;9.00;99.90;;;;;;5087135;28;20136;-72
2022/04/24 02:47:09;;;;;;;13.88;12.10;;;9.00;99.90;;;;;;5086576;28;20113;-73
2022/04/24 02:49:35;;;;;;;12.88;10.90;;;9.00;99.90;;;;;;5084856;28;20323;-72
2022/04/24 02:52:00;;;;;;;13.63;11.55;;;9.00;99.90;;;;;;5090846;28;20020;-72
2022/04/24 02:54:26;;;;;;;15.15;12.30;;;9.10;99.90;;;;;;5094759;28;20034;-73
2022/04/24 02:56:51;;;;;;;14.27;12.25;;;9.00;99.90;;;;;;5086901;28;20497;-74
2022/04/24 02:59:17;;;;;;;15.82;11.13;;;9.10;99.90;;;;;;5089186;28;20035;-73
2022/04/24 03:01:44;;;;;;;16.48;12.45;;;9.00;99.90;;;;;;5087039;28;20508;-73
2022/04/24 03:04:10;;;;;;;15.98;11.95;;;9.00;99.90;;;;;;5090307;28;20092;-73
2022/04/24 03:06:36;;;;;;;13.15;11.38;;;9.10;99.90;;;;;;5089995;28;20035;-74
2022/04/24 03:09:01;;;;;;;14.88;12.13;;;9.10;99.90;;;;;;5088933;28;20039;-73
2022/04/24 03:11:27;;;;;;;16.13;12.88;;;9.10;99.90;;;;;;5092335;28;20020;-73
2022/04/24 03:13:52;;;;;;;14.43;12.43;;;9.00;99.90;;;;;;5086771;28;20047;-73
2022/04/24 03:16:18;;;;;;;16.02;13.02;;;9.00;99.90;;;;;;5089324;28;20032;-73
2022/04/24 03:18:43;;;;;;;20.10;12.45;;;9.00;99.90;;;;;;5089635;28;20060;-73
2022/04/24 03:21:10;;;;;;;16.10;12.85;;;9.00;99.90;;;;;;5084900;28;20043;-73
2022/04/24 03:23:35;;;;;;;16.17;13.10;;;9.10;99.90;;;;;;5087518;28;20036;-73
2022/04/24 03:26:01;;;;;;;14.90;12.27;;;9.00;99.90;;;;;;5084219;28;20239;-73
2022/04/24 03:28:26;;;;;;;15.85;12.38;;;9.00;99.90;;;;;;5094524;28;20055;-73
2022/04/24 03:30:52;;;;;;;14.27;12.18;;;8.90;99.90;;;;;;5094368;28;20023;-73
2022/04/24 03:33:17;;;;;;;15.95;12.70;;;9.00;99.90;;;;;;5093716;28;20023;-73
2022/04/24 03:35:43;;;;;;;16.33;11.45;;;8.90;99.90;;;;;;5090608;28;20116;-73
2022/04/24 03:38:09;;;;;;;16.45;13.00;;;8.80;99.90;;;;;;5097771;28;20034;-73
2022/04/24 03:40:34;;;;;;;16.65;12.55;;;8.80;99.90;;;;;;5093902;28;20574;-73
2022/04/24 03:43:00;;;;;;;17.80;12.38;;;8.80;99.90;;;;;;5090216;28;20030;-72
2022/04/24 03:45:25;;;;;;;18.88;11.85;;;8.70;99.90;;;;;;5091582;28;20396;-72
2022/04/24 03:47:54;;;;;;;19.42;13.00;;;8.70;99.90;;;;;;5099716;28;20050;-73
2022/04/24 03:50:20;;;;;;;14.90;12.40;;;8.70;99.90;;;;;;5099048;28;20112;-73
2022/04/24 03:52:46;;;;;;;15.05;11.77;;;8.60;99.90;;;;;;5092466;28;20088;-73
2022/04/24 03:55:11;;;;;;;17.90;12.40;;;8.60;99.90;;;;;;5087284;28;20337;-72
2022/04/24 03:57:37;;;;;;;18.90;12.25;;;8.60;99.90;;;;;;5101531;28;20031;-72
2022/04/24 04:00:05;;;;;;;16.35;12.50;;;8.50;99.90;;;;;;5098179;28;20025;-72
2022/04/24 04:02:31;;;;;;;17.58;12.73;;;8.50;99.90;;;;;;5097954;28;20051;-72
2022/04/24 04:04:57;;;;;;;18.15;12.65;;;8.50;99.90;;;;;;5095036;28;20307;-72
2022/04/24 04:07:23;;;;;;;19.20;13.23;;;8.50;99.90;;;;;;5089151;28;20387;-72
2022/04/24 04:09:48;;;;;;;18.95;13.20;;;8.40;99.90;;;;;;5099619;28;20509;-73
2022/04/24 04:12:14;;;;;;;14.80;12.65;;;8.40;99.90;;;;;;5090208;28;20020;-73
2022/04/24 04:14:40;;;;;;;17.80;12.82;;;8.40;99.90;;;;;;5087592;28;20551;-72
2022/04/24 04:17:08;;;;;;;15.40;13.00;;;8.40;99.90;;;;;;5098280;28;20031;-72
2022/04/24 04:19:34;;;;;;;15.90;12.90;;;8.40;99.90;;;;;;5100851;28;20392;-73
2022/04/24 04:22:00;;;;;;;18.10;12.57;;;8.40;99.90;;;;;;5094328;28;20030;-73
2022/04/24 04:24:25;;;;;;;15.38;12.57;;;8.40;99.90;;;;;;5088873;28;20434;-73
2022/04/24 04:26:51;;;;;;;18.35;13.20;;;8.30;99.90;;;;;;5092109;28;20031;-73
2022/04/24 04:29:16;;;;;;;15.90;13.25;;;8.30;99.90;;;;;;5093872;28;20484;-73
2022/04/24 04:31:42;;;;;;;18.75;13.50;;;8.30;99.90;;;;;;5089712;28;20074;-73
2022/04/24 04:34:07;;;;;;;15.63;12.43;;;8.30;99.90;;;;;;5097317;28;20110;-72
2022/04/24 04:36:33;;;;;;;17.27;13.18;;;8.40;99.90;;;;;;5092721;28;20031;-73
2022/04/24 04:38:59;;;;;;;17.23;12.80;;;8.30;99.90;;;;;;5099154;28;20032;-73
2022/04/24 04:41:25;;;;;;;20.23;13.35;;;8.40;99.90;;;;;;5093753;28;20644;-73
2022/04/24 04:43:50;;;;;;;15.80;12.77;;;8.40;99.90;;;;;;5086047;28;20049;-73
2022/04/24 04:46:16;;;;;;;17.05;13.52;;;8.40;99.90;;;;;;5088461;28;20040;-73
2022/04/24 04:48:41;;;;;;;16.95;13.32;;;8.40;99.90;;;;;;5091935;28;20077;-73
2022/04/24 04:51:07;;;;;;;16.70;13.43;;;8.40;99.90;;;;;;5107542;28;20295;-73
2022/04/24 04:53:34;;;;;;;16.63;13.43;;;8.40;99.90;;;;;;5105036;28;20470;-72
2022/04/24 04:56:00;;;;;;;15.68;13.25;;;8.40;99.90;;;;;;5087102;28;20091;-72
2022/04/24 04:58:25;;;;;;;18.25;13.52;;;8.40;99.90;;;;;;5092151;28;20110;-72
2022/04/24 05:00:51;;;;;;;19.23;13.45;;;8.50;99.90;;;;;;5096091;28;20043;-73
2022/04/24 05:03:16;;;;;;;16.65;12.88;;;8.40;99.90;;;;;;5103399;28;20376;-72
2022/04/24 05:05:42;;;;;;;17.13;12.80;;;8.50;99.90;;;;;;5103403;28;20115;-72
2022/04/24 05:08:08;;;;;;;16.73;13.25;;;8.50;99.90;;;;;;5103135;28;20040;-72
2022/04/24 05:10:34;;;;;;;16.38;12.98;;;8.50;99.90;;;;;;5102746;28;20024;-73
2022/04/24 05:12:59;;;;;;;15.82;12.95;;;8.50;99.90;;;;;;5095936;28;20023;-73
2022/04/24 05:15:25;;;;;;;16.98;12.85;;;8.50;99.90;;;;;;5093703;28;20057;-73
2022/04/24 05:17:52;;;;;;;19.73;13.18;;;8.60;99.90;;;;;;5089093;28;20032;-73
2022/04/24 05:20:18;;;;;;;18.35;12.73;;;8.60;99.90;;;;;;5092446;28;20515;-72
2022/04/24 05:22:43;;;;;;;16.75;13.05;;;8.60;99.90;;;;;;5098630;28;20028;-73
2022/04/24 05:25:12;;;;;;;15.38;13.02;;;8.70;99.90;;;;;;5085418;28;20106;-73
2022/04/24 05:27:38;;;;;;;16.23;12.48;;;8.70;99.90;;;;;;5092484;28;20031;-73
2022/04/24 05:30:07;;;;;;;17.88;13.20;;;8.70;99.90;;;;;;5096526;28;20040;-74
2022/04/24 05:32:48;;;;;;;17.33;12.95;;;8.70;99.90;;;;;;5088347;28;20050;-72
2022/04/24 05:35:15;;;;;;;16.83;12.82;;;8.80;99.90;;;;;;5093843;28;20031;-72
2022/04/24 05:37:41;;;;;;;16.90;12.93;;;8.80;99.90;;;;;;5094012;28;20067;-73
2022/04/24 05:40:08;;;;;;;18.35;12.85;;;8.80;99.90;;;;;;5094293;28;20486;-73
2022/04/24 05:42:34;;;;;;;16.95;12.93;;;8.80;99.90;;;;;;5089692;28;20440;-73
2022/04/24 05:45:04;;;;;;;17.48;12.13;;;8.80;99.90;;;;;;5086982;28;20098;-73
2022/04/24 05:47:30;;;;;;;17.42;13.07;;;8.90;99.90;;;;;;5093498;28;20024;-74
2022/04/24 05:49:55;;;;;;;15.32;12.55;;;8.90;99.90;;;;;;5091377;28;20042;-73
2022/04/24 05:52:21;;;;;;;14.45;11.95;;;8.90;99.90;;;;;;5095754;28;20027;-73
2022/04/24 05:54:47;;;;;;;15.10;12.73;;;8.90;99.90;;;;;;5085738;28;20028;-73
2022/04/24 05:57:13;;;;;;;16.35;13.00;;;9.00;99.90;;;;;;5089958;28;20028;-73
2022/04/24 05:59:38;;;;;;;17.15;13.18;;;9.00;99.90;;;;;;5090010;28;20115;-73
2022/04/24 06:02:04;;;;;;;17.83;13.27;;;9.10;99.90;;;;;;5099069;28;20107;-73
2022/04/24 06:04:30;;;;;;;16.33;12.55;;;9.10;99.90;;;;;;5081671;28;20711;-73
2022/04/24 06:06:55;;;;;;;15.60;12.25;;;9.10;99.90;;;;;;5096057;28;20503;-73
2022/04/24 06:09:21;;;;;;;17.30;12.57;;;9.20;99.90;;;;;;5089705;28;20111;-72
2022/04/24 06:11:46;;;;;;;16.02;12.20;;;9.30;99.90;;;;;;5103572;28;20505;-72
2022/04/24 06:14:13;;;;;;;14.80;12.10;;;9.30;99.90;;;;;;5092964;28;20028;-72
2022/04/24 06:16:38;;;;;;;18.15;12.38;;;9.30;99.90;;;;;;5088133;28;20030;-73
2022/04/24 06:19:04;;;;;;;17.50;12.40;;;9.30;99.90;;;;;;5091316;28;20023;-72
2022/04/24 06:21:29;;;;;;;18.20;12.40;;;9.40;99.90;;;;;;5089286;28;20336;-73
2022/04/24 06:23:55;;;;;;;16.15;12.82;;;9.40;99.90;;;;;;5089559;28;20024;-73
2022/04/24 06:26:21;;;;;;;17.80;12.30;;;9.40;99.90;;;;;;5079268;28;20028;-72
2022/04/24 06:28:46;;;;;;;15.15;12.52;;;9.50;99.90;;;;;;5091218;28;20023;-73
2022/04/24 06:31:12;;;;;;;19.55;12.75;;;9.60;99.90;;;;;;5083323;28;20124;-73
2022/04/24 06:33:37;;;;;;;17.38;12.32;;;9.60;99.90;;;;;;5086545;28;20028;-73
2022/04/24 06:36:03;;;;;;;18.13;12.52;;;9.70;99.90;;;;;;5096109;28;20543;-73
2022/04/24 06:38:29;;;;;;;15.27;11.88;;;9.80;99.90;;;;;;5088116;28;20024;-73
2022/04/24 06:40:54;;;;;;;15.48;11.90;;;9.90;99.90;;;;;;5084516;28;20138;-74
2022/04/24 06:43:20;;;;;;;17.70;12.55;;;10.00;99.90;;;;;;5089569;28;20024;-73
2022/04/24 06:45:45;;;;;;;16.95;12.80;;;10.10;99.90;;;;;;5088409;28;20031;-72
2022/04/24 06:48:13;;;;;;;16.92;13.30;;;10.20;99.90;;;;;;5089713;28;20036;-72
2022/04/24 06:50:40;;;;;;;18.92;12.30;;;10.30;99.90;;;;;;5088846;28;20028;-72
2022/04/24 06:53:10;;;;;;;16.77;12.27;;;10.40;99.90;;;;;;4360461;28;10001064;-72
2022/04/24 06:55:37;;;;;;;14.43;11.63;;;10.50;99.90;;;;;;5045901;28;20037;-73
2022/04/24 06:58:05;;;;;;;17.05;12.65;;;10.60;99.90;;;;;;5056855;28;20032;-74
2022/04/24 07:00:33;;;;;;;15.60;11.98;;;10.60;99.90;;;;;;5052315;28;20413;-72
2022/04/24 07:02:58;;;;;;;15.55;12.43;;;10.70;99.90;;;;;;5048532;28;20040;-72
2022/04/24 07:05:26;;;;;;;16.50;12.60;;;10.70;99.90;;;;;;5054222;28;20043;-73
2022/04/24 07:07:52;;;;;;;14.32;11.63;;;10.80;99.90;;;;;;5041168;28;20094;-72
2022/04/24 07:10:18;;;;;;;15.90;12.43;;;10.90;99.90;;;;;;5055361;28;20028;-75
2022/04/24 07:12:47;;;;;;;14.27;11.75;;;11.00;99.90;;;;;;5059750;28;20108;-72
2022/04/24 07:15:17;;;;;;;15.65;11.60;;;11.00;99.90;;;;;;5056274;28;20127;-76
2022/04/24 07:17:43;;;;;;;15.45;12.52;;;11.20;99.90;;;;;;5054953;28;22632;-76
2022/04/24 07:20:10;;;;;;;18.77;12.38;;;11.30;99.90;;;;;;5062556;28;20060;-74
2022/04/24 07:22:46;;;;;;;17.15;11.68;;;11.40;99.90;;;;;;5060603;28;20025;-77
2022/04/24 07:25:17;;;;;;;15.00;12.00;;;11.40;99.90;;;;;;5077201;28;20044;-75
2022/04/24 07:27:43;;;;;;;15.43;11.70;;;11.40;99.90;;;;;;5085604;28;20024;-76
2022/04/24 07:30:15;;;;;;;15.05;11.85;;;11.40;99.90;;;;;;5089961;28;20102;-75
2022/04/24 07:32:43;;;;;;;25.27;12.33;;;11.30;99.90;;;;;;5094963;28;20048;-75
2022/04/24 07:35:10;;;;;;;16.33;11.88;;;11.30;99.90;;;;;;5090047;28;20034;-77
2022/04/24 07:37:37;;;;;;;13.88;11.82;;;11.40;99.90;;;;;;5096238;28;20027;-76
2022/04/24 07:40:04;;;;;;;15.90;11.93;;;11.60;99.90;;;;;;5088423;28;20063;-73
2022/04/24 07:42:30;;;;;;;16.40;12.23;;;11.60;99.90;;;;;;5087312;28;20038;-73
2022/04/24 07:44:56;;;;;;;16.55;11.75;;;;;;;;;;5091287;28;20035;-74
2022/04/24 07:47:21;;;;;;;16.13;12.52;;;11.80;99.90;;;;;;5103040;28;20043;-74
2022/04/24 07:49:47;;;;;;;14.15;11.70;;;11.80;99.90;;;;;;5096017;28;20091;-74
2022/04/24 07:52:12;;;;;;;15.07;11.40;;;11.80;99.90;;;;;;5102993;28;20031;-74
2022/04/24 07:54:38;;;;;;;15.30;11.57;;;11.90;99.90;;;;;;5108202;28;20038;-74
2022/04/24 07:57:05;;;;;;;14.85;11.57;;;12.10;99.90;;;;;;5109939;28;20025;-74
2022/04/24 07:59:31;;;;;;;14.57;12.18;;;12.10;99.90;;;;;;5102721;28;20071;-74
2022/04/24 08:01:56;;;;;;;15.80;12.02;;;12.10;99.90;;;;;;5090122;28;20067;-74
2022/04/24 08:04:22;;;;;;;13.63;11.85;;;12.10;99.90;;;;;;5088960;28;20038;-74
2022/04/24 08:06:48;;;;;;;12.88;11.18;;;12.20;99.90;;;;;;5110064;28;20452;-74
2022/04/24 08:09:14;;;;;;;14.15;11.50;;;12.30;99.90;;;;;;5103557;28;20024;-75
2022/04/24 08:11:39;;;;;;;17.33;11.82;;;12.30;99.90;;;;;;5088747;28;20115;-74
2022/04/24 08:14:05;;;;;;;16.70;12.48;;;12.40;99.90;;;;;;5087523;28;20450;-74
2022/04/24 08:16:31;;;;;;;14.48;11.70;;;12.40;99.90;;;;;;5094787;28;20445;-74
2022/04/24 08:19:01;;;;;;;12.90;11.50;;;12.40;99.90;;;;;;5092860;28;20028;-74
2022/04/24 08:21:26;;;;;;;14.00;11.20;;;12.50;99.90;;;;;;5087735;28;20268;-74
2022/04/24 08:23:52;;;;;;;14.73;11.60;;;12.50;99.90;;;;;;5087201;28;20035;-75
2022/04/24 08:26:18;;;;;;;16.17;11.88;;;12.40;99.90;;;;;;5088631;28;20024;-75
2022/04/24 08:28:44;;;;;;;14.85;11.85;;;12.40;99.90;;;;;;5088726;28;20149;-74
2022/04/24 08:31:09;;;;;;;14.43;11.48;;;12.50;99.90;;;;;;5098695;28;20577;-75
2022/04/24 08:33:35;;;;;;;15.40;11.40;;;12.50;99.90;;;;;;5095370;28;20024;-74
2022/04/24 08:36:01;;;;;;;14.68;11.55;;;12.50;99.90;;;;;;5095669;28;20101;-75
2022/04/24 08:38:26;;;;;;;13.27;11.25;;;12.50;99.90;;;;;;5105752;28;20050;-74
2022/04/24 08:40:53;;;;;;;13.90;11.73;;;12.50;99.90;;;;;;5088323;28;20479;-74
2022/04/24 08:43:23;;;;;;;15.80;11.40;;;12.50;99.90;;;;;;5088574;28;20664;-74
2022/04/24 08:45:51;;;;;;;15.15;12.13;;;12.50;99.90;;;;;;5094141;28;20024;-74
2022/04/24 08:48:18;;;;;;;13.82;11.50;;;12.60;99.90;;;;;;5097561;28;20051;-74
2022/04/24 08:50:45;;;;;;;15.85;12.07;;;12.60;99.90;;;;;;5094277;28;20540;-74
2022/04/24 08:53:11;;;;;;;14.93;11.30;;;12.60;99.90;;;;;;5098892;28;20109;-74
2022/04/24 08:55:37;;;;;;;13.82;11.75;;;12.80;99.90;;;;;;5102458;28;20115;-74
2022/04/24 08:58:02;;;;;;;14.93;11.13;;;12.80;99.90;;;;;;5101339;28;20055;-74
2022/04/24 09:00:29;;;;;;;15.07;11.10;;;12.80;99.90;;;;;;5108279;28;20044;-74
2022/04/24 09:02:57;;;;;;;15.85;11.40;;;12.90;99.90;;;;;;5099727;28;20028;-74
2022/04/24 09:05:23;;;;;;;12.18;10.65;;;13.00;99.90;;;;;;5086939;28;20418;-74
2022/04/24 09:07:52;;;;;;;14.48;11.43;;;13.10;99.90;;;;;;5088869;28;20032;-73
2022/04/24 09:10:18;;;;;;;16.20;11.63;;;13.20;99.90;;;;;;5098965;28;20453;-74
2022/04/24 09:12:52;;;;;;;14.80;11.00;;;13.30;99.90;;;;;;5102332;28;20026;-74
2022/04/24 09:15:18;;;;;;;13.70;11.02;;;13.50;99.90;;;;;;5085441;28;20028;-74
2022/04/24 09:17:43;;;;;;;13.32;10.27;;;13.60;99.90;;;;;;5092411;28;20082;-74
2022/04/24 09:20:18;;;;;;;13.93;10.60;;;13.50;99.90;;;;;;5091784;28;20659;-74
2022/04/24 09:22:44;;;;;;;16.23;11.32;;;13.60;99.90;;;;;;5087861;28;20020;-74
2022/04/24 09:25:12;;;;;;;14.15;11.00;;;13.60;99.90;;;;;;5087181;28;20187;-74
2022/04/24 09:27:37;;;;;;;15.07;11.63;;;13.60;99.90;;;;;;5099083;28;20031;-74
2022/04/24 09:30:09;;;;;;;16.48;11.52;;;13.50;99.90;;;;;;5088696;28;20368;-74
2022/04/24 09:32:52;;;;;;;14.07;11.25;;;13.60;99.90;;;;;;5087116;28;20039;-74
2022/04/24 09:35:39;;;;;;;15.43;11.27;;;13.70;99.90;;;;;;5101524;28;20511;-74
2022/04/24 09:38:10;;;;;;;14.60;11.05;;;13.70;99.90;;;;;;5106968;28;20742;-74
2022/04/24 09:40:48;;;;;;;11.77;10.57;;;13.80;99.90;;;;;;5102327;28;20024;-74
2022/04/24 09:43:17;;;;;;;14.65;10.73;;;14.10;99.90;;;;;;5090190;28;20103;-74
2022/04/24 09:45:48;;;;;;;10.98;9.50;;;14.10;99.70;;;;;;5087105;28;20032;-74
2022/04/24 09:48:19;;;;;;;17.63;9.88;;;14.10;98.90;;;;;;5087758;28;20051;-74
2022/04/24 09:50:45;;;;;;;12.10;9.57;;;14.00;98.60;;;;;;5087311;28;20365;-73
2022/04/24 09:53:18;;;;;;;12.57;10.55;;;14.00;98.60;;;;;;5100572;28;20034;-73
2022/04/24 09:55:44;;;;;;;10.63;9.50;;;14.10;98.90;;;;;;5106057;28;20554;-73
2022/04/24 09:58:12;;;;;;;11.63;9.98;;;14.00;99.00;;;;;;5095825;28;20063;-74
2022/04/24 10:00:38;;;;;;;14.63;10.07;;;13.90;98.10;;;;;;5100369;28;20403;-73
2022/04/24 10:03:05;;;;;;;14.00;9.68;;;14.10;98.30;;;;;;5104292;28;20562;-73
2022/04/24 10:05:31;;;;;;;15.45;9.98;;;14.20;98.30;;;;;;5086002;28;20027;-73
2022/04/24 10:07:59;;;;;;;15.23;10.00;;;14.20;97.40;;;;;;5086659;28;20549;-73
2022/04/24 10:10:24;;;;;;;12.50;10.18;;;14.30;96.70;;;;;;5101287;28;20060;-74
2022/04/24 10:12:51;;;;;;;11.30;9.60;;;14.50;98.10;;;;;;5107113;28;20131;-74
2022/04/24 10:15:20;;;;;;;10.10;9.00;;;14.60;96.90;;;;;;5101229;28;20476;-74
2022/04/24 10:18:19;;;;;;;12.68;9.10;;;14.70;96.10;;;;;;5087370;28;20514;-74
2022/04/24 10:21:03;;;;;;;11.30;9.05;;;14.60;95.50;;;;;;5087448;28;20042;-73
2022/04/24 10:23:33;;;;;;;11.15;9.50;;;14.60;94.70;;;;;;5086873;28;20078;-74
2022/04/24 10:25:59;;;;;;;9.68;8.65;;;14.70;94.10;;;;;;5084847;28;20572;-74
2022/04/24 10:28:36;;;;;;;10.07;8.98;;;14.90;93.80;;;;;;5086341;28;20110;-73
2022/04/24 10:31:03;;;;;;;13.30;9.20;;;14.80;93.40;;;;;;5101727;28;20061;-74
2022/04/24 10:33:33;;;;;;;13.25;9.38;;;14.90;95.10;;;;;;5096914;28;20030;-73
2022/04/24 10:35:59;;;;;;;11.35;9.65;;;14.80;94.10;;;;;;5100731;28;20084;-73
2022/04/24 10:38:26;;;;;;;10.18;8.90;;;14.70;94.40;;;;;;5094380;28;20563;-74
2022/04/24 10:40:59;;;;;;;9.60;8.15;;;14.70;93.50;;;;;;5098901;28;20484;-73
2022/04/24 10:43:25;;;;;;;9.52;8.02;;;14.60;93.50;;;;;;5107200;28;20119;-74
2022/04/24 10:45:52;;;;;;;8.40;7.55;;;14.60;91.70;;;;;;5101449;28;20410;-73
2022/04/24 10:48:19;;;;;;;8.73;6.85;;;14.60;92.70;;;;;;5087130;28;20089;-73
2022/04/24 10:50:49;;;;;;;16.15;6.43;;;14.60;90.40;;;;;;5099156;28;20027;-74
2022/04/24 10:53:15;;;;;;;8.15;6.60;;;14.50;90.30;;;;;;5103672;28;20015;-74
2022/04/24 10:55:42;;;;;;;7.88;6.38;;;14.60;90.00;;;;;;5095302;28;20471;-74
2022/04/24 10:58:09;;;;;;;7.13;5.90;;;14.60;87.40;;;;;;5095226;28;20076;-74
2022/04/24 11:00:36;;;;;;;10.35;6.70;;;14.70;87.20;;;;;;4731789;28;10000345;-75
2022/04/24 11:03:14;;;;;;;9.65;6.72;;;14.70;88.20;;;;;;5085832;28;20027;-74
2022/04/24 11:05:45;;;;;;;8.32;6.30;;;14.70;87.10;;;;;;5083260;28;20019;-74
2022/04/24 11:08:21;;;;;;;9.55;7.53;;;14.70;86.30;;;;;;5088839;28;20431;-73
2022/04/24 11:10:49;;;;;;;8.02;6.50;;;14.70;88.30;;;;;;5087527;28;20027;-74
2022/04/24 11:13:17;;;;;;;8.57;6.00;;;14.70;87.70;;;;;;5086150;28;20028;-74
2022/04/24 11:15:45;;;;;;;6.85;6.03;;;14.70;85.20;;;;;;5089315;28;20073;-74
2022/04/24 11:18:23;;;;;;;6.30;5.70;;;14.80;85.90;;;;;;5091499;28;20043;-74
2022/04/24 11:20:58;;;;;;;6.45;5.78;;;14.70;81.80;;;;;;5084250;28;20196;-73
2022/04/24 11:23:26;;;;;;;6.80;5.90;;;14.70;82.60;;;;;;5090359;28;20036;-73
2022/04/24 11:25:54;;;;;;;6.80;6.13;;;14.70;81.90;;;;;;5090408;28;20544;-73
2022/04/24 11:28:20;;;;;;;7.72;6.38;;;14.70;82.10;;;;;;5093421;28;20494;-74
2022/04/24 11:30:46;;;;;;;8.13;6.47;;;14.60;80.50;;;;;;5083954;28;20027;-74
2022/04/24 11:33:12;;;;;;;6.95;6.20;;;14.60;80.50;;;;;;5085736;28;20040;-73
2022/04/24 11:35:39;;;;;;;8.23;6.53;;;14.50;82.50;;;;;;5083846;28;20051;-73
2022/04/24 11:38:12;;;;;;;8.77;6.50;;;14.50;83.10;;;;;;5090838;28;20416;-74
2022/04/24 11:40:46;;;;;;;8.68;6.25;;;14.50;83.50;;;;;;5083434;28;20564;-74
2022/04/24 11:43:15;;;;;;;7.20;6.22;;;14.50;82.70;;;;;;5100800;28;20088;-74
2022/04/24 11:51:17;;;;;;;7.03;6.20;;;14.70;82.10;;;;;;5090838;28;20084;-74
2022/04/24 11:53:44;;;;;;;8.32;6.07;;;14.70;82.70;;;;;;5101957;28;20051;-75
2022/04/24 11:56:11;;;;;;;10.02;6.45;;;14.70;83.10;;;;;;5098868;28;20038;-74
2022/04/24 11:58:41;;;;;;;7.20;6.50;;;14.70;83.40;;;;;;5087262;28;20054;-74
2022/04/24 12:01:13;;;;;;;8.63;7.35;;;14.80;83.50;;;;;;5099700;28;20118;-74
2022/04/24 12:03:43;;;;;;;8.30;7.10;;;14.70;83.70;;;;;;5101649;28;20487;-73
2022/04/24 12:06:11;;;;;;;9.32;8.32;;;14.70;84.30;;;;;;5090750;28;20039;-74
2022/04/24 12:08:48;;;;;;;8.07;7.28;;;14.70;83.90;;;;;;5094653;28;20023;-74
2022/04/24 12:11:30;;;;;;;10.30;8.07;;;14.70;85.10;;;;;;5107189;28;20145;-74
2022/04/24 12:14:00;;;;;;;10.85;7.82;;;14.70;86.00;;;;;;5094191;28;20400;-73
2022/04/24 12:16:25;;;;;;;13.38;7.97;;;14.70;86.30;;;;;;5092243;28;20027;-72
2022/04/24 12:18:56;;;;;;;11.10;8.70;;;14.60;87.00;;;;;;5091445;28;20548;-74
2022/04/24 12:21:22;;;;;;;10.63;8.50;;;14.60;87.20;;;;;;5087458;28;20114;-73
2022/04/24 12:23:52;;;;;;;9.07;8.13;;;14.70;87.70;;;;;;5099134;28;20555;-73
2022/04/24 12:26:17;;;;;;;10.18;8.27;;;14.70;87.80;;;;;;4394312;28;10000803;-73
2022/04/24 12:28:43;;;;;;;13.13;8.98;;;14.70;88.70;;;;;;5101455;28;20102;-74
2022/04/24 12:31:25;;;;;;;10.43;9.32;;;14.70;88.90;;;;;;5097930;28;20039;-75
2022/04/24 12:33:53;;;;;;;12.98;9.55;;;14.60;89.60;;;;;;5081920;28;20040;-75
2022/04/24 12:36:19;;;;;;;11.77;10.00;;;14.50;89.60;;;;;;5099842;28;20027;-75
2022/04/24 12:38:59;;;;;;;11.48;10.23;;;14.40;89.90;;;;;;5085642;28;20036;-75
2022/04/24 12:41:27;;;;;;;10.95;9.77;;;14.30;90.10;;;;;;5089080;28;20059;-70